Time;durP1;ratioP1;P1;durP2;ratioP2;P2;SDS_P1;SDS_P2;PMS_P1;PMS_P2;Temp;Humidity;BMP_temperature;BMP_pressure;BME280_temperature;BME280_humidity;BME280_pressure;Samples;Min_cycle;Max_cycle;Signal;HPM_P1;HPM_P2
2022/12/23 00:01:24;;;;;;;0.08;0.08;;;;;;;;;;5055891;28;20049;-86
2022/12/23 00:03:57;;;;;;;0.20;0.15;;;;;;;;;;5056226;28;20055;-86
2022/12/23 00:06:26;;;;;;;1.75;0.17;;;;;;;;;;5057576;28;20056;-85
2022/12/23 00:08:56;;;;;;;0.03;0.03;;;;;;;;;;5056495;28;20061;-87
2022/12/23 00:11:26;;;;;;;0.13;0.13;;;;;;;;;;5061977;28;20094;-88
2022/12/23 00:16:48;;;;;;;0.00;0.00;;;;;;;;;;5048250;28;20091;-88
2022/12/23 00:19:18;;;;;;;0.17;0.17;;;;;;;;;;5057549;28;20053;-89
2022/12/23 00:21:47;;;;;;;0.03;0.03;;;;;;;;;;5058979;28;20118;-89
2022/12/23 00:24:16;;;;;;;0.10;0.10;;;;;;;;;;5052437;28;20143;-88
2022/12/23 00:26:44;;;;;;;0.00;0.00;;;;;;;;;;5059836;28;20457;-88
2022/12/23 00:29:13;;;;;;;0.20;0.20;;;;;;;;;;5052668;28;20037;-88
2022/12/23 00:31:41;;;;;;;0.08;0.08;;;;;;;;;;5051194;28;20056;-88
2022/12/23 00:34:10;;;;;;;0.10;0.10;;;;;;;;;;5060385;28;20473;-88
2022/12/23 00:36:39;;;;;;;0.20;0.20;;;;;;;;;;5055471;28;20049;-87
2022/12/23 00:44:41;;;;;;;5.65;0.35;;;;;;;;;;5050110;28;20045;-86
2022/12/23 00:49:40;;;;;;;0.00;0.00;;;;;;;;;;5047581;28;20087;-87
2022/12/23 00:49:58;;;;;;;0.50;0.30;;;;;;;;;;5071961;28;20037;-87
2022/12/23 00:52:28;;;;;;;0.20;0.10;;;;;;;;;;5048965;28;20563;-86
2022/12/23 00:54:56;;;;;;;10.63;0.45;;;;;;;;;;5057707;28;20059;-86
2022/12/23 00:57:25;;;;;;;0.50;0.30;;;;;;;;;;5054206;28;20048;-87
2022/12/23 00:59:53;;;;;;;2.85;0.17;;;;;;;;;;5043732;28;20103;-85
2022/12/23 01:08:19;;;;;;;0.10;0.10;;;;;;;;;;5148236;27;20405;-85
2022/12/23 01:10:47;;;;;;;0.10;0.10;;;;;;;;;;5100703;28;20052;-84
2022/12/23 01:13:15;;;;;;;0.20;0.20;;;;;;;;;;5100744;28;20051;-86
2022/12/23 01:15:44;;;;;;;0.20;0.20;;;;;;;;;;5089933;28;20514;-87
2022/12/23 01:18:12;;;;;;;0.22;0.22;;;;;;;;;;5094769;27;20051;-87
2022/12/23 01:20:40;;;;;;;1.38;0.55;;;;;;;;;;5087509;28;20044;-87
2022/12/23 01:23:08;;;;;;;3.33;0.20;;;;;;;;;;5099486;28;20047;-86
2022/12/23 01:25:38;;;;;;;0.10;0.10;;;;;;;;;;5107087;28;20040;-86
2022/12/23 01:28:06;;;;;;;0.45;0.30;;;;;;;;;;5090672;28;20058;-86
2022/12/23 01:30:35;;;;;;;0.10;0.10;;;;;;;;;;5091187;28;20048;-87
2022/12/23 01:33:03;;;;;;;0.05;0.05;;;;;;;;;;5105137;27;20044;-87
2022/12/23 01:35:31;;;;;;;0.55;0.10;;;;;;;;;;5110532;28;20048;-86
2022/12/23 01:38:00;;;;;;;0.40;0.40;;;;;;;;;;5094235;28;20050;-88
2022/12/23 01:40:28;;;;;;;0.00;0.00;;;;;;;;;;5105219;28;20105;-87
2022/12/23 01:42:57;;;;;;;0.38;0.20;;;;;;;;;;5105289;28;20051;-86
2022/12/23 01:45:28;;;;;;;0.85;0.28;;;;;;;;;;5103425;28;20055;-86
2022/12/23 01:47:57;;;;;;;0.00;0.00;;;;;;;;;;5119214;27;20628;-86
2022/12/23 01:50:28;;;;;;;1.17;0.10;;;;;;;;;;5124139;27;20044;-86
2022/12/23 01:53:00;;;;;;;0.10;0.10;;;;;;;;;;5116863;27;20046;-86
2022/12/23 01:55:37;;;;;;;1.58;0.88;;;;;;;;;;5116820;28;20040;-86
2022/12/23 01:58:09;;;;;;;0.80;0.63;;;;;;;;;;5123830;27;20064;-86
2022/12/23 02:03:42;;;;;;;0.10;0.10;;;;;;;;;;5126192;27;20047;-88
2022/12/23 02:09:19;;;;;;;0.00;0.00;;;;;;;;;;5107559;27;20483;-86
2022/12/23 02:12:06;;;;;;;0.00;0.00;;;;;;;;;;5126807;27;20060;-86
2022/12/23 02:17:49;;;;;;;0.00;0.00;;;;;;;;;;5050817;28;20055;-86
2022/12/23 02:20:44;;;;;;;0.10;0.10;;;;;;;;;;5048175;28;20045;-86
2022/12/23 02:23:32;;;;;;;0.10;0.10;;;;;;;;;;5085021;28;20392;-86
2022/12/23 02:26:11;;;;;;;0.10;0.10;;;;;;;;;;5112389;28;20036;-86
2022/12/23 02:28:58;;;;;;;0.10;0.10;;;;;;;;;;5099577;28;20048;-87
2022/12/23 02:31:30;;;;;;;0.20;0.20;;;;;;;;;;5112425;28;20499;-86
2022/12/23 02:34:01;;;;;;;0.10;0.10;;;;;;;;;;5096588;28;20071;-87
2022/12/23 02:36:34;;;;;;;0.03;0.03;;;;;;;;;;5111483;28;20075;-87
2022/12/23 02:39:05;;;;;;;0.32;0.32;;;;;;;;;;5112339;27;20063;-86
2022/12/23 02:41:35;;;;;;;0.43;0.17;;;;;;;;;;5108782;28;20040;-87
2022/12/23 02:44:06;;;;;;;0.10;0.10;;;;;;;;;;5112160;28;20482;-86
2022/12/23 02:46:38;;;;;;;0.20;0.20;;;;;;;;;;5111481;28;20048;-86
2022/12/23 02:49:08;;;;;;;0.10;0.10;;;;;;;;;;5104484;27;20126;-87
2022/12/23 02:51:38;;;;;;;0.10;0.10;;;;;;;;;;5098973;28;20043;-86
2022/12/23 02:54:08;;;;;;;0.20;0.20;;;;;;;;;;5109301;27;20044;-87
2022/12/23 02:56:38;;;;;;;0.10;0.10;;;;;;;;;;5108726;27;20043;-86
2022/12/23 02:59:09;;;;;;;0.10;0.10;;;;;;;;;;5103512;27;20043;-86
2022/12/23 03:01:39;;;;;;;0.00;0.00;;;;;;;;;;5107538;27;20055;-88
2022/12/23 03:04:07;;;;;;;0.00;0.00;;;;;;;;;;5100524;28;20097;-87
2022/12/23 03:06:38;;;;;;;0.00;0.00;;;;;;;;;;5095886;28;20058;-86
2022/12/23 03:09:06;;;;;;;0.10;0.10;;;;;;;;;;5105155;27;20154;-86
2022/12/23 03:11:43;;;;;;;0.10;0.10;;;;;;;;;;5108358;28;20051;-86
2022/12/23 03:14:26;;;;;;;0.10;0.10;;;;;;;;;;5109020;28;20093;-87
2022/12/23 03:17:01;;;;;;;0.10;0.10;;;;;;;;;;5105215;27;20054;-86
2022/12/23 03:19:32;;;;;;;0.10;0.10;;;;;;;;;;5103084;27;20048;-86
2022/12/23 03:22:06;;;;;;;0.10;0.10;;;;;;;;;;5103662;28;20044;-86
2022/12/23 03:24:39;;;;;;;0.10;0.10;;;;;;;;;;5091843;28;20044;-86
2022/12/23 03:27:10;;;;;;;0.00;0.00;;;;;;;;;;5106724;28;20383;-86
2022/12/23 03:29:42;;;;;;;0.00;0.00;;;;;;;;;;5106396;27;20138;-86
2022/12/23 03:32:12;;;;;;;0.10;0.10;;;;;;;;;;5108126;28;20047;-86
2022/12/23 03:34:42;;;;;;;0.10;0.10;;;;;;;;;;5100541;27;20055;-87
2022/12/23 03:37:12;;;;;;;0.32;0.20;;;;;;;;;;5103484;28;20063;-87
2022/12/23 03:39:43;;;;;;;0.05;0.05;;;;;;;;;;5103792;27;20404;-88
2022/12/23 03:42:15;;;;;;;1.10;0.20;;;;;;;;;;5107366;28;20047;-87
2022/12/23 03:44:45;;;;;;;0.22;0.22;;;;;;;;;;5109104;28;20039;-86
2022/12/23 03:47:37;;;;;;;0.20;0.13;;;;;;;;;;5100905;28;20047;-87
2022/12/23 03:50:08;;;;;;;0.10;0.10;;;;;;;;;;5101697;28;20043;-86
2022/12/23 03:52:39;;;;;;;0.25;0.25;;;;;;;;;;5097668;28;20047;-87
2022/12/23 03:55:11;;;;;;;0.05;0.05;;;;;;;;;;5097094;28;20055;-88
2022/12/23 03:57:41;;;;;;;0.17;0.17;;;;;;;;;;5102416;28;20047;-87
2022/12/23 04:00:10;;;;;;;0.10;0.10;;;;;;;;;;5107232;28;20059;-86
2022/12/23 04:02:42;;;;;;;0.22;0.10;;;;;;;;;;5106596;28;20510;-87
2022/12/23 04:05:20;;;;;;;0.20;0.15;;;;;;;;;;5101416;27;20143;-87
2022/12/23 04:07:52;;;;;;;0.10;0.10;;;;;;;;;;5100410;28;20134;-87
2022/12/23 04:10:21;;;;;;;0.17;0.17;;;;;;;;;;5099278;28;20047;-88
2022/12/23 04:12:50;;;;;;;0.00;0.00;;;;;;;;;;5095973;28;20383;-86
2022/12/23 04:15:21;;;;;;;0.43;0.20;;;;;;;;;;5105049;28;20070;-86
2022/12/23 04:17:51;;;;;;;0.10;0.10;;;;;;;;;;5103226;28;20047;-86
2022/12/23 04:20:20;;;;;;;0.05;0.05;;;;;;;;;;5107715;28;20648;-86
2022/12/23 04:22:48;;;;;;;0.10;0.10;;;;;;;;;;5101080;28;20048;-87
2022/12/23 04:25:17;;;;;;;0.10;0.10;;;;;;;;;;5102271;28;20043;-86
2022/12/23 04:27:45;;;;;;;0.00;0.00;;;;;;;;;;5099994;27;20058;-86
2022/12/23 04:30:14;;;;;;;0.00;0.00;;;;;;;;;;5109653;27;20055;-86
2022/12/23 04:32:43;;;;;;;0.00;0.00;;;;;;;;;;5103462;28;20416;-87
2022/12/23 04:35:12;;;;;;;1.17;0.10;;;;;;;;;;5100634;28;20050;-86
2022/12/23 04:37:41;;;;;;;0.10;0.10;;;;;;;;;;5100301;28;20043;-86
2022/12/23 04:40:09;;;;;;;0.00;0.00;;;;;;;;;;5094381;28;20048;-87
2022/12/23 04:42:38;;;;;;;0.00;0.00;;;;;;;;;;5107417;28;20063;-86
2022/12/23 04:45:06;;;;;;;0.10;0.10;;;;;;;;;;5100475;28;20051;-86
2022/12/23 04:47:35;;;;;;;0.13;0.13;;;;;;;;;;5107079;28;20039;-86
2022/12/23 04:50:03;;;;;;;0.10;0.10;;;;;;;;;;5103013;27;20036;-90
2022/12/23 04:52:33;;;;;;;0.03;0.03;;;;;;;;;;5104251;28;20154;-86
2022/12/23 04:55:01;;;;;;;0.00;0.00;;;;;;;;;;5102703;28;20139;-87
2022/12/23 04:57:29;;;;;;;0.10;0.10;;;;;;;;;;5108139;28;20039;-86
2022/12/23 04:59:58;;;;;;;0.00;0.00;;;;;;;;;;5108186;27;20511;-86
2022/12/23 05:02:26;;;;;;;5.05;0.47;;;;;;;;;;5106982;28;20051;-87
2022/12/23 05:04:54;;;;;;;0.40;0.15;;;;;;;;;;5103466;28;20044;-87
2022/12/23 05:07:23;;;;;;;0.10;0.10;;;;;;;;;;5101649;28;20054;-87
2022/12/23 05:09:52;;;;;;;0.00;0.00;;;;;;;;;;5095994;28;20040;-86
2022/12/23 05:12:21;;;;;;;0.00;0.00;;;;;;;;;;5105483;28;20051;-87
2022/12/23 05:14:49;;;;;;;0.00;0.00;;;;;;;;;;5107913;28;20503;-86
2022/12/23 05:17:17;;;;;;;0.05;0.05;;;;;;;;;;5107261;28;20435;-87
2022/12/23 05:19:46;;;;;;;0.00;0.00;;;;;;;;;;5102678;28;20048;-87
2022/12/23 05:22:14;;;;;;;0.00;0.00;;;;;;;;;;5099552;28;20048;-86
2022/12/23 05:24:42;;;;;;;0.00;0.00;;;;;;;;;;5106310;28;20382;-87
2022/12/23 05:27:12;;;;;;;0.00;0.00;;;;;;;;;;5098884;28;20047;-87
2022/12/23 05:29:40;;;;;;;0.10;0.10;;;;;;;;;;5102188;27;20058;-87
2022/12/23 05:32:08;;;;;;;0.00;0.00;;;;;;;;;;5106871;28;20062;-88
2022/12/23 05:34:37;;;;;;;0.00;0.00;;;;;;;;;;5105760;28;20044;-87
2022/12/23 05:37:05;;;;;;;0.00;0.00;;;;;;;;;;5100524;28;20044;-87
2022/12/23 05:39:33;;;;;;;0.20;0.20;;;;;;;;;;5106214;27;20056;-87
2022/12/23 05:42:02;;;;;;;0.10;0.10;;;;;;;;;;5107765;28;20105;-87
2022/12/23 05:44:31;;;;;;;0.00;0.00;;;;;;;;;;5109043;28;20048;-87
2022/12/23 05:47:00;;;;;;;0.00;0.00;;;;;;;;;;5105420;28;20039;-87
2022/12/23 05:49:28;;;;;;;0.10;0.10;;;;;;;;;;5108260;28;20044;-87
2022/12/23 05:51:56;;;;;;;0.00;0.00;;;;;;;;;;5099686;28;20046;-88
2022/12/23 05:54:24;;;;;;;0.25;0.25;;;;;;;;;;5109704;28;20048;-87
2022/12/23 05:56:53;;;;;;;0.10;0.10;;;;;;;;;;5110702;27;20054;-86
2022/12/23 05:59:21;;;;;;;0.10;0.10;;;;;;;;;;5107126;28;20050;-88
2022/12/23 06:01:57;;;;;;;0.00;0.00;;;;;;;;;;5102418;28;20047;-87
2022/12/23 06:04:26;;;;;;;0.03;0.03;;;;;;;;;;5108505;27;20046;-87
2022/12/23 06:06:55;;;;;;;0.10;0.10;;;;;;;;;;5107790;28;20043;-86
2022/12/23 06:09:23;;;;;;;0.00;0.00;;;;;;;;;;5105377;27;20054;-87
2022/12/23 06:11:51;;;;;;;0.10;0.10;;;;;;;;;;5111522;28;20052;-87
2022/12/23 06:14:21;;;;;;;0.17;0.17;;;;;;;;;;5106335;27;20054;-87
2022/12/23 06:16:57;;;;;;;0.05;0.05;;;;;;;;;;5101415;28;20591;-87
2022/12/23 06:19:27;;;;;;;0.10;0.10;;;;;;;;;;5102599;27;20089;-85
2022/12/23 06:21:55;;;;;;;0.03;0.03;;;;;;;;;;5098899;28;20066;-88
2022/12/23 06:24:23;;;;;;;0.25;0.25;;;;;;;;;;5098104;28;20134;-89
2022/12/23 06:26:52;;;;;;;0.00;0.00;;;;;;;;;;5100266;28;20043;-89
2022/12/23 06:29:24;;;;;;;0.00;0.00;;;;;;;;;;5105833;28;20055;-90
2022/12/23 06:31:52;;;;;;;0.22;0.22;;;;;;;;;;5108751;28;20402;-89
2022/12/23 06:34:22;;;;;;;0.10;0.10;;;;;;;;;;5103128;28;20353;-88
2022/12/23 06:36:50;;;;;;;0.00;0.00;;;;;;;;;;5103512;28;20040;-88
2022/12/23 06:39:19;;;;;;;0.00;0.00;;;;;;;;;;5105117;27;20525;-88
2022/12/23 06:41:47;;;;;;;0.10;0.10;;;;;;;;;;5108710;28;20043;-88
2022/12/23 06:44:15;;;;;;;0.10;0.10;;;;;;;;;;5108794;28;20048;-88
2022/12/23 06:46:44;;;;;;;0.10;0.10;;;;;;;;;;5099864;28;20488;-87
2022/12/23 06:49:12;;;;;;;0.08;0.08;;;;;;;;;;5100913;27;20455;-87
2022/12/23 06:51:42;;;;;;;0.60;0.10;;;;;;;;;;5103858;28;20075;-89
2022/12/23 06:54:11;;;;;;;0.10;0.10;;;;;;;;;;5102809;28;20158;-88
2022/12/23 06:56:40;;;;;;;0.10;0.10;;;;;;;;;;5108189;28;20044;-89
2022/12/23 06:59:08;;;;;;;0.10;0.10;;;;;;;;;;5105582;27;20424;-89
2022/12/23 07:01:36;;;;;;;0.08;0.08;;;;;;;;;;5097688;28;20051;-89
2022/12/23 07:04:05;;;;;;;0.10;0.10;;;;;;;;;;5102787;28;20093;-88
2022/12/23 07:06:33;;;;;;;0.00;0.00;;;;;;;;;;5100650;28;20048;-88
2022/12/23 07:09:03;;;;;;;0.20;0.20;;;;;;;;;;5094931;28;20082;-88
2022/12/23 07:11:31;;;;;;;0.32;0.20;;;;;;;;;;5094119;28;20043;-89
2022/12/23 07:14:00;;;;;;;0.10;0.10;;;;;;;;;;5101362;28;20146;-88
2022/12/23 07:16:28;;;;;;;0.15;0.10;;;;;;;;;;5094743;27;20136;-89
2022/12/23 07:18:56;;;;;;;0.95;0.22;;;;;;;;;;5107561;27;20115;-88
2022/12/23 07:21:25;;;;;;;0.30;0.30;;;;;;;;;;5118455;27;20043;-88
2022/12/23 07:23:57;;;;;;;0.10;0.10;;;;;;;;;;5125608;27;20039;-88
2022/12/23 07:26:27;;;;;;;0.50;0.20;;;;;;;;;;5124627;27;20050;-89
2022/12/23 07:28:55;;;;;;;0.08;0.05;;;;;;;;;;5124543;27;20055;-88
2022/12/23 07:31:24;;;;;;;0.45;0.08;;;;;;;;;;5127937;27;20039;-89
2022/12/23 07:33:53;;;;;;;0.00;0.00;;;;;;;;;;5120208;27;20047;-89
2022/12/23 07:36:21;;;;;;;0.00;0.00;;;;;;;;;;5120527;27;20043;-88
2022/12/23 07:38:50;;;;;;;0.00;0.00;;;;;;;;;;5121481;27;20191;-89
2022/12/23 07:41:19;;;;;;;0.55;0.20;;;;;;;;;;5122516;27;20262;-88
2022/12/23 07:43:48;;;;;;;0.00;0.00;;;;;;;;;;5126470;27;20057;-88
2022/12/23 07:46:17;;;;;;;0.03;0.03;;;;;;;;;;5126856;27;20086;-88
2022/12/23 07:48:45;;;;;;;0.00;0.00;;;;;;;;;;5119161;27;20763;-88
2022/12/23 07:51:13;;;;;;;0.00;0.00;;;;;;;;;;5121265;27;20042;-88
2022/12/23 07:53:43;;;;;;;0.10;0.10;;;;;;;;;;5125268;27;20473;-88
2022/12/23 07:56:11;;;;;;;0.30;0.30;;;;;;;;;;5123917;27;20050;-89
2022/12/23 07:58:39;;;;;;;0.00;0.00;;;;;;;;;;5125728;27;20071;-87
2022/12/23 08:01:09;;;;;;;0.10;0.10;;;;;;;;;;5128903;27;20061;-88
2022/12/23 08:03:38;;;;;;;0.03;0.00;;;;;;;;;;5119522;27;20518;-89
2022/12/23 08:06:07;;;;;;;0.03;0.03;;;;;;;;;;5124108;27;20043;-89
2022/12/23 08:08:36;;;;;;;1.00;0.10;;;;;;;;;;5123465;27;20057;-89
2022/12/23 08:11:05;;;;;;;0.00;0.00;;;;;;;;;;5116780;27;20042;-88
2022/12/23 08:13:34;;;;;;;0.10;0.10;;;;;;;;;;5123886;27;20047;-88
2022/12/23 08:16:03;;;;;;;0.08;0.08;;;;;;;;;;5127368;27;20069;-89
2022/12/23 08:18:34;;;;;;;0.00;0.00;;;;;;;;;;5121511;27;20414;-89
2022/12/23 08:21:03;;;;;;;0.47;0.17;;;;;;;;;;5123969;27;20104;-89
2022/12/23 08:23:32;;;;;;;0.10;0.10;;;;;;;;;;5118135;27;20470;-90
2022/12/23 08:26:01;;;;;;;1.55;0.90;;;;;;;;;;5115235;27;20054;-89
2022/12/23 08:28:30;;;;;;;0.20;0.20;;;;;;;;;;5117100;27;20138;-89
2022/12/23 08:31:03;;;;;;;0.00;0.00;;;;;;;;;;5122955;27;20086;-89
2022/12/23 08:33:33;;;;;;;0.00;0.00;;;;;;;;;;5121760;27;20047;-89
2022/12/23 08:36:02;;;;;;;0.00;0.00;;;;;;;;;;5098499;27;20053;-89
2022/12/23 08:38:30;;;;;;;0.10;0.10;;;;;;;;;;5115739;27;20410;-86
2022/12/23 08:40:59;;;;;;;0.70;0.10;;;;;;;;;;5117936;27;20072;-91
2022/12/23 08:43:27;;;;;;;0.00;0.00;;;;;;;;;;5124912;27;20123;-89
2022/12/23 08:46:03;;;;;;;0.00;0.00;;;;;;;;;;5126487;27;20135;-88
2022/12/23 08:48:31;;;;;;;0.00;0.00;;;;;;;;;;5122834;27;20058;-85
2022/12/23 08:51:04;;;;;;;0.10;0.10;;;;;;;;;;5123130;27;20042;-88
2022/12/23 08:53:33;;;;;;;0.00;0.00;;;;;;;;;;5126139;27;20521;-87
2022/12/23 08:56:03;;;;;;;0.00;0.00;;;;;;;;;;5125680;27;20043;-87
2022/12/23 08:58:31;;;;;;;0.08;0.08;;;;;;;;;;5129645;27;20531;-86
2022/12/23 09:01:03;;;;;;;0.00;0.00;;;;;;;;;;5120990;27;20051;-86
2022/12/23 09:03:32;;;;;;;0.00;0.00;;;;;;;;;;5114142;27;20039;-87
2022/12/23 09:06:04;;;;;;;0.00;0.00;;;;;;;;;;5125432;27;20449;-87
2022/12/23 09:08:34;;;;;;;0.10;0.10;;;;;;;;;;5122054;27;20043;-87
2022/12/23 09:11:03;;;;;;;0.05;0.05;;;;;;;;;;5122926;27;20070;-85
2022/12/23 09:13:31;;;;;;;0.00;0.00;;;;;;;;;;5105559;28;20054;-86
2022/12/23 09:16:03;;;;;;;0.00;0.00;;;;;;;;;;5124613;28;20510;-84
2022/12/23 09:18:32;;;;;;;0.00;0.00;;;;;;;;;;5120004;28;20055;-84
2022/12/23 09:21:00;;;;;;;0.10;0.10;;;;;;;;;;5116943;28;20048;-85
2022/12/23 09:23:29;;;;;;;1.35;0.10;;;;;;;;;;5126775;27;20051;-84
2022/12/23 09:25:59;;;;;;;0.00;0.00;;;;;;;;;;5124381;27;20043;-85
2022/12/23 09:28:27;;;;;;;0.00;0.00;;;;;;;;;;5129296;27;20047;-84
2022/12/23 09:30:55;;;;;;;0.20;0.20;;;;;;;;;;5128070;27;20054;-84
2022/12/23 09:33:24;;;;;;;0.05;0.05;;;;;;;;;;5131288;27;20043;-85
2022/12/23 09:35:52;;;;;;;0.10;0.10;;;;;;;;;;5125319;27;20055;-85
2022/12/23 09:38:20;;;;;;;0.22;0.22;;;;;;;;;;5122040;27;20047;-84
2022/12/23 09:40:49;;;;;;;1.58;0.10;;;;;;;;;;5128690;27;22714;-84
2022/12/23 09:43:26;;;;;;;0.00;0.00;;;;;;;;;;5123905;27;20446;-84
2022/12/23 09:45:59;;;;;;;0.38;0.10;;;;;;;;;;5128056;27;20059;-87
2022/12/23 09:48:30;;;;;;;0.00;0.00;;;;;;;;;;5130426;27;20167;-91
2022/12/23 09:50:59;;;;;;;0.00;0.00;;;;;;;;;;5129654;27;20061;-93
2022/12/23 09:53:32;;;;;;;0.00;0.00;;;;;;;;;;5125589;27;20046;-85
2022/12/23 09:56:02;;;;;;;0.00;0.00;;;;;;;;;;5121824;27;20043;-84
2022/12/23 09:58:36;;;;;;;0.00;0.00;;;;;;;;;;5130536;27;20518;-85
2022/12/23 10:01:14;;;;;;;0.45;0.10;;;;;;;;;;5124771;27;20055;-85
2022/12/23 10:03:54;;;;;;;0.00;0.00;;;;;;;;;;5120256;27;20050;-85
2022/12/23 10:06:25;;;;;;;0.17;0.17;;;;;;;;;;5130521;27;20059;-85
2022/12/23 10:08:55;;;;;;;0.10;0.10;;;;;;;;;;5125996;27;20047;-84
2022/12/23 10:11:26;;;;;;;0.00;0.00;;;;;;;;;;5126722;27;20131;-85
2022/12/23 10:13:57;;;;;;;0.03;0.03;;;;;;;;;;5127911;27;20146;-86
2022/12/23 10:16:26;;;;;;;3.72;0.10;;;;;;;;;;5125466;27;20048;-85
2022/12/23 10:18:59;;;;;;;0.00;0.00;;;;;;;;;;5124384;27;20044;-86
2022/12/23 10:21:31;;;;;;;0.00;0.00;;;;;;;;;;5116919;27;20077;-86
2022/12/23 10:24:01;;;;;;;0.00;0.00;;;;;;;;;;5125346;27;20074;-86
2022/12/23 10:26:32;;;;;;;0.00;0.00;;;;;;;;;;5128447;27;20098;-85
2022/12/23 10:29:06;;;;;;;0.10;0.10;;;;;;;;;;5124836;27;20043;-86
2022/12/23 10:31:41;;;;;;;0.00;0.00;;;;;;;;;;5124588;27;20478;-86
2022/12/23 10:34:15;;;;;;;0.00;0.00;;;;;;;;;;5124206;27;20043;-85
2022/12/23 10:36:48;;;;;;;0.00;0.00;;;;;;;;;;5130967;27;20051;-85
2022/12/23 10:39:21;;;;;;;0.05;0.05;;;;;;;;;;5130269;27;20047;-86
2022/12/23 10:41:54;;;;;;;0.03;0.03;;;;;;;;;;5125092;27;20053;-85
2022/12/23 10:44:33;;;;;;;0.00;0.00;;;;;;;;;;5130046;27;20134;-85
2022/12/23 10:47:06;;;;;;;0.00;0.00;;;;;;;;;;5130325;27;20137;-85
2022/12/23 10:49:40;;;;;;;0.03;0.03;;;;;;;;;;5124093;27;20039;-86
2022/12/23 10:52:12;;;;;;;0.35;0.20;;;;;;;;;;5127737;27;20506;-85
2022/12/23 10:54:42;;;;;;;0.10;0.10;;;;;;;;;;5123452;27;20043;-86
2022/12/23 10:57:10;;;;;;;0.17;0.17;;;;;;;;;;5126402;27;20856;-85
2022/12/23 10:59:40;;;;;;;0.30;0.10;;;;;;;;;;5131092;27;20069;-85
2022/12/23 11:02:23;;;;;;;0.00;0.00;;;;;;;;;;5126720;27;20051;-85
2022/12/23 11:04:51;;;;;;;0.00;0.00;;;;;;;;;;5118302;27;20059;-86
2022/12/23 11:07:21;;;;;;;0.10;0.10;;;;;;;;;;5127011;27;20062;-86
2022/12/23 11:10:15;;;;;;;2.05;0.10;;;;;;;;;;5124364;27;20070;-86
2022/12/23 11:12:46;;;;;;;0.43;0.10;;;;;;;;;;5123209;27;20039;-85
2022/12/23 11:15:30;;;;;;;0.00;0.00;;;;;;;;;;5124348;27;20122;-85
2022/12/23 11:18:01;;;;;;;0.20;0.10;;;;;;;;;;5119852;27;20050;-85
2022/12/23 11:20:30;;;;;;;0.00;0.00;;;;;;;;;;5122900;27;20550;-85
2022/12/23 11:23:00;;;;;;;0.10;0.10;;;;;;;;;;5125602;27;20073;-85
2022/12/23 11:25:31;;;;;;;0.60;0.20;;;;;;;;;;5125145;27;20045;-85
2022/12/23 11:28:02;;;;;;;3.20;0.20;;;;;;;;;;5132100;27;20258;-85
2022/12/23 11:30:31;;;;;;;0.00;0.00;;;;;;;;;;5068346;28;20130;-85
2022/12/23 11:33:01;;;;;;;0.10;0.10;;;;;;;;;;5079860;28;20048;-86
2022/12/23 11:35:30;;;;;;;0.20;0.20;;;;;;;;;;5082511;28;20683;-85
2022/12/23 11:37:59;;;;;;;0.52;0.25;;;;;;;;;;5080416;28;20099;-85
2022/12/23 11:40:29;;;;;;;0.22;0.20;;;;;;;;;;5080172;28;20061;-85
2022/12/23 11:43:02;;;;;;;0.10;0.10;;;;;;;;;;5083318;28;20551;-85
2022/12/23 11:45:33;;;;;;;0.17;0.10;;;;;;;;;;5085590;28;20052;-85
2022/12/23 11:48:04;;;;;;;0.05;0.05;;;;;;;;;;5078150;28;20412;-84
2022/12/23 11:50:34;;;;;;;0.25;0.15;;;;;;;;;;5056627;28;20048;-85
2022/12/23 11:53:14;;;;;;;0.80;0.25;;;;;;;;;;5079523;28;20076;-85
2022/12/23 11:55:45;;;;;;;0.25;0.20;;;;;;;;;;5120735;27;20043;-85
2022/12/23 11:58:20;;;;;;;0.10;0.10;;;;;;;;;;5131545;27;20050;-85
2022/12/23 12:00:53;;;;;;;0.25;0.15;;;;;;;;;;5138148;27;20048;-87
2022/12/23 12:03:27;;;;;;;0.20;0.10;;;;;;;;;;5142121;27;20111;-84
2022/12/23 12:05:58;;;;;;;0.10;0.10;;;;;;;;;;5139866;27;20046;-85
2022/12/23 12:08:28;;;;;;;0.08;0.08;;;;;;;;;;5135405;27;20154;-85
2022/12/23 12:11:01;;;;;;;0.45;0.20;;;;;;;;;;5135301;27;20047;-85
2022/12/23 12:13:30;;;;;;;0.08;0.08;;;;;;;;;;5144895;27;20039;-86
2022/12/23 12:16:07;;;;;;;0.00;0.00;;;;;;;;;;5134004;27;20066;-85
2022/12/23 12:18:38;;;;;;;0.10;0.10;;;;;;;;;;5110392;27;20073;-85
2022/12/23 12:21:10;;;;;;;0.93;0.15;;;;;;;;;;5126734;27;20044;-86
2022/12/23 12:23:44;;;;;;;0.35;0.30;;;;;;;;;;5120111;27;20055;-85
2022/12/23 12:26:15;;;;;;;0.00;0.00;;;;;;;;;;5118752;27;20053;-85
2022/12/23 12:28:45;;;;;;;0.25;0.25;;;;;;;;;;5123284;27;20499;-85
2022/12/23 12:31:17;;;;;;;0.22;0.22;;;;;;;;;;5128365;27;20066;-85
2022/12/23 12:33:48;;;;;;;0.20;0.10;;;;;;;;;;5123453;27;20653;-85
2022/12/23 12:36:19;;;;;;;0.00;0.00;;;;;;;;;;5118424;27;20039;-85
2022/12/23 12:38:48;;;;;;;0.10;0.10;;;;;;;;;;5114772;27;20586;-85
2022/12/23 12:41:18;;;;;;;0.00;0.00;;;;;;;;;;5125247;27;20061;-85
2022/12/23 12:43:51;;;;;;;0.10;0.10;;;;;;;;;;5121870;27;20051;-85
2022/12/23 12:46:25;;;;;;;0.10;0.10;;;;;;;;;;5117613;27;20055;-85
2022/12/23 12:48:57;;;;;;;0.45;0.45;;;;;;;;;;5120197;27;20047;-84
2022/12/23 12:51:28;;;;;;;1.17;0.10;;;;;;;;;;5130110;27;20039;-85
2022/12/23 12:53:59;;;;;;;0.00;0.00;;;;;;;;;;5128362;27;20088;-84
2022/12/23 12:56:35;;;;;;;0.10;0.10;;;;;;;;;;5120088;27;20130;-84
2022/12/23 12:59:04;;;;;;;0.00;0.00;;;;;;;;;;5127502;27;20049;-84
2022/12/23 13:01:42;;;;;;;0.05;0.05;;;;;;;;;;5111430;27;20043;-85
2022/12/23 13:04:30;;;;;;;0.10;0.05;;;;;;;;;;5125679;27;20470;-85
2022/12/23 13:07:03;;;;;;;0.03;0.03;;;;;;;;;;5128473;27;20054;-85
2022/12/23 13:09:38;;;;;;;1.55;0.17;;;;;;;;;;5122581;27;20043;-85
2022/12/23 13:12:06;;;;;;;;;;;;;;;;;;5126592;28;20070;-84
2022/12/23 13:14:41;;;;;;;0.10;0.10;;;;;;;;;;5128524;27;19919;-85
2022/12/23 13:17:13;;;;;;;0.10;0.10;;;;;;;;;;5126783;27;20487;-85
2022/12/23 13:19:47;;;;;;;0.00;0.00;;;;;;;;;;5120714;27;20074;-83
2022/12/23 13:22:17;;;;;;;0.25;0.25;;;;;;;;;;5126402;27;20544;-89
2022/12/23 13:24:54;;;;;;;0.05;0.05;;;;;;;;;;5120723;27;20138;-88
2022/12/23 13:27:27;;;;;;;0.00;0.00;;;;;;;;;;5123387;27;20069;-88
2022/12/23 13:29:59;;;;;;;1.13;0.10;;;;;;;;;;5120211;28;20607;-89
2022/12/23 13:32:37;;;;;;;0.00;0.00;;;;;;;;;;5118904;27;20074;-88
2022/12/23 13:35:14;;;;;;;0.17;0.13;;;;;;;;;;5121180;28;20043;-93
2022/12/23 13:37:46;;;;;;;0.00;0.00;;;;;;;;;;5125878;28;20044;-93
2022/12/23 13:40:21;;;;;;;0.03;0.03;;;;;;;;;;5110506;27;20054;-91
2022/12/23 13:42:53;;;;;;;0.00;0.00;;;;;;;;;;5131376;27;20110;-89
2022/12/23 13:45:22;;;;;;;0.10;0.10;;;;;;;;;;5125179;28;20134;-92
2022/12/23 13:47:54;;;;;;;0.10;0.10;;;;;;;;;;5119547;28;20043;-91
2022/12/23 13:50:36;;;;;;;0.10;0.10;;;;;;;;;;5133685;28;20055;-94
2022/12/23 13:53:11;;;;;;;1.25;0.13;;;;;;;;;;5125360;27;20051;-92
2022/12/23 13:55:58;;;;;;;0.10;0.10;;;;;;;;;;5125640;27;20047;-91
2022/12/23 13:58:27;;;;;;;0.28;0.03;;;;;;;;;;5129665;27;20070;-91
2022/12/23 14:01:00;;;;;;;0.30;0.10;;;;;;;;;;5136183;27;20562;-90
2022/12/23 14:03:33;;;;;;;0.00;0.00;;;;;;;;;;5124912;27;20047;-91
2022/12/23 14:06:19;;;;;;;0.10;0.10;;;;;;;;;;5127695;27;20051;-92
2022/12/23 14:08:48;;;;;;;0.00;0.00;;;;;;;;;;5126615;27;20060;-91
2022/12/23 14:11:19;;;;;;;0.10;0.10;;;;;;;;;;5130440;27;20818;-92
2022/12/23 14:13:54;;;;;;;0.35;0.30;;;;;;;;;;5125311;27;20136;-93
2022/12/23 14:16:36;;;;;;;0.20;0.10;;;;;;;;;;5133700;27;20039;-90
2022/12/23 14:19:24;;;;;;;0.15;0.15;;;;;;;;;;5121646;27;20065;-88
2022/12/23 14:21:59;;;;;;;0.10;0.10;;;;;;;;;;5121212;27;20051;-88
2022/12/23 14:24:37;;;;;;;1.02;0.20;;;;;;;;;;5127163;27;20558;-89
2022/12/23 14:27:17;;;;;;;1.08;0.40;;;;;;;;;;5125064;27;20047;-88
2022/12/23 14:29:52;;;;;;;0.20;0.20;;;;;;;;;;5129307;27;20051;-92
2022/12/23 14:32:20;;;;;;;;;;;;;;;;;;5132002;27;20043;-90
2022/12/23 14:35:06;;;;;;;0.32;0.13;;;;;;;;;;5127900;27;19919;-89
2022/12/23 14:37:36;;;;;;;0.00;0.00;;;;;;;;;;5130806;27;20043;-90
2022/12/23 14:40:23;;;;;;;0.00;0.00;;;;;;;;;;5131263;27;20051;-90
2022/12/23 14:43:12;;;;;;;0.10;0.10;;;;;;;;;;5133833;27;20047;-89
2022/12/23 14:45:44;;;;;;;0.15;0.15;;;;;;;;;;5130795;27;20138;-89
2022/12/23 14:48:27;;;;;;;7.93;0.22;;;;;;;;;;5123950;27;20051;-89
2022/12/23 14:51:00;;;;;;;0.03;0.03;;;;;;;;;;5131403;27;20049;-90
2022/12/23 14:53:29;;;;;;;0.08;0.08;;;;;;;;;;5127994;27;20054;-94
2022/12/23 14:56:21;;;;;;;0.15;0.10;;;;;;;;;;5128634;27;20042;-87
2022/12/23 14:58:54;;;;;;;0.30;0.28;;;;;;;;;;5124730;27;20446;-91
2022/12/23 15:01:27;;;;;;;0.10;0.10;;;;;;;;;;5126234;27;20051;-87
2022/12/23 15:03:57;;;;;;;0.00;0.00;;;;;;;;;;5124111;27;20047;-86
2022/12/23 15:06:33;;;;;;;1.55;0.17;;;;;;;;;;5120234;27;20522;-86
2022/12/23 15:09:06;;;;;;;0.73;0.13;;;;;;;;;;5126757;27;20071;-87
2022/12/23 15:11:35;;;;;;;0.30;0.20;;;;;;;;;;5111649;27;20062;-87
2022/12/23 15:14:05;;;;;;;0.20;0.10;;;;;;;;;;5128258;27;20427;-94
2022/12/23 15:16:37;;;;;;;0.13;0.13;;;;;;;;;;5105710;27;20044;-95
2022/12/23 15:19:16;;;;;;;0.75;0.30;;;;;;;;;;5124438;27;20052;-95
2022/12/23 15:21:44;;;;;;;0.88;0.30;;;;;;;;;;5126935;27;20519;-95
2022/12/23 15:24:18;;;;;;;0.00;0.00;;;;;;;;;;5126763;27;20108;-95
2022/12/23 15:26:49;;;;;;;0.00;0.00;;;;;;;;;;5124107;27;20095;-94
2022/12/23 15:29:43;;;;;;;0.20;0.20;;;;;;;;;;5121933;27;20464;-96
2022/12/23 15:32:13;;;;;;;0.20;0.13;;;;;;;;;;5124955;27;20058;-95